Time;durP1;ratioP1;P1;durP2;ratioP2;P2;SDS_P1;SDS_P2;PMS_P1;PMS_P2;Temp;Humidity;BMP_temperature;BMP_pressure;BME280_temperature;BME280_humidity;BME280_pressure;Samples;Min_cycle;Max_cycle;Signal;HPM_P1;HPM_P2
2021/03/23 00:01:04;;;;;;;10.45;4.82;;;7.20;92.30;;;;;;5073255;28;20545;-73
2021/03/23 00:03:34;;;;;;;9.05;4.47;;;7.20;92.20;;;;;;5073987;28;20029;-72
2021/03/23 00:05:59;;;;;;;8.73;5.15;;;7.20;92.30;;;;;;5074263;28;20064;-72
2021/03/23 00:08:38;;;;;;;11.05;4.95;;;7.20;92.40;;;;;;5074029;28;20456;-71
2021/03/23 00:11:15;;;;;;;7.45;4.75;;;7.20;92.50;;;;;;5073671;28;20032;-71
2021/03/23 00:13:43;;;;;;;12.10;5.00;;;7.20;92.60;;;;;;5073967;28;20037;-72
2021/03/23 00:16:10;;;;;;;13.68;4.72;;;7.20;92.60;;;;;;5059609;28;20532;-72
2021/03/23 00:18:36;;;;;;;9.68;4.47;;;7.10;92.70;;;;;;5073650;28;20032;-73
2021/03/23 00:21:02;;;;;;;16.63;5.38;;;7.10;92.80;;;;;;5073960;28;20098;-71
2021/03/23 00:23:28;;;;;;;10.18;5.43;;;7.20;92.80;;;;;;5074122;28;20481;-71
2021/03/23 00:25:54;;;;;;;10.68;5.75;;;7.20;92.90;;;;;;5073310;28;20062;-71
2021/03/23 00:28:23;;;;;;;9.77;4.93;;;7.10;92.90;;;;;;5074281;28;20031;-73
2021/03/23 00:30:49;;;;;;;12.77;5.07;;;7.20;93.30;;;;;;5073640;28;20032;-72
2021/03/23 00:33:15;;;;;;;10.98;5.72;;;7.20;93.00;;;;;;5072057;28;20072;-70
2021/03/23 00:35:41;;;;;;;8.43;4.80;;;7.10;93.10;;;;;;5073424;28;20102;-71
2021/03/23 00:38:09;;;;;;;8.13;4.30;;;7.10;93.20;;;;;;5071108;28;20449;-71
2021/03/23 00:40:35;;;;;;;11.20;4.78;;;7.10;93.50;;;;;;5074834;28;20029;-73
2021/03/23 00:43:04;;;;;;;16.13;4.63;;;7.00;93.60;;;;;;5074622;28;20054;-71
2021/03/23 00:45:31;;;;;;;8.48;5.38;;;7.00;93.60;;;;;;5073527;28;20416;-73
2021/03/23 00:47:56;;;;;;;7.55;4.57;;;7.00;93.70;;;;;;5074753;28;20496;-71
2021/03/23 00:50:22;;;;;;;10.77;5.10;;;7.00;93.80;;;;;;5073272;28;20044;-72
2021/03/23 00:52:48;;;;;;;10.30;4.90;;;7.00;93.80;;;;;;5072930;28;20396;-72
2021/03/23 00:55:14;;;;;;;11.82;4.40;;;6.90;93.80;;;;;;5072157;28;20029;-70
2021/03/23 00:57:40;;;;;;;9.77;4.50;;;6.90;93.80;;;;;;5072895;28;20032;-71
2021/03/23 01:00:09;;;;;;;15.02;5.15;;;7.00;93.90;;;;;;5072992;28;20027;-71
2021/03/23 01:02:34;;;;;;;10.48;4.85;;;6.90;93.90;;;;;;5073115;28;20021;-72
2021/03/23 01:05:00;;;;;;;8.25;4.75;;;7.00;93.80;;;;;;5072937;28;20032;-71
2021/03/23 01:07:26;;;;;;;9.02;4.90;;;6.90;93.80;;;;;;5079602;28;20028;-71
2021/03/23 01:09:52;;;;;;;9.90;4.65;;;6.90;93.80;;;;;;5062388;28;20427;-72
2021/03/23 01:12:18;;;;;;;9.02;5.10;;;7.00;93.80;;;;;;5053515;28;20059;-71
2021/03/23 01:14:44;;;;;;;13.52;4.53;;;6.90;93.80;;;;;;5072470;28;20107;-72
2021/03/23 01:17:10;;;;;;;9.27;4.65;;;7.00;93.90;;;;;;5072828;28;20037;-72
2021/03/23 01:19:36;;;;;;;10.82;4.47;;;7.00;94.00;;;;;;5073117;28;20040;-72
2021/03/23 01:22:03;;;;;;;16.13;4.85;;;7.00;94.00;;;;;;5072401;28;20066;-71
2021/03/23 01:24:29;;;;;;;10.02;4.45;;;6.90;94.10;;;;;;5072488;28;20047;-70
2021/03/23 01:26:54;;;;;;;10.60;4.80;;;7.00;94.10;;;;;;5072814;28;20028;-73
2021/03/23 01:29:20;;;;;;;7.72;4.43;;;7.00;94.20;;;;;;5072549;28;20036;-72
2021/03/23 01:31:46;;;;;;;10.02;4.82;;;6.90;94.10;;;;;;5072407;28;20021;-71
2021/03/23 01:34:12;;;;;;;8.07;4.78;;;7.00;94.30;;;;;;5072409;28;20039;-72
2021/03/23 01:36:37;;;;;;;7.47;4.70;;;6.90;94.30;;;;;;5072430;28;20071;-71
2021/03/23 01:39:04;;;;;;;6.85;4.40;;;6.80;94.40;;;;;;5071944;28;20485;-71
2021/03/23 01:41:31;;;;;;;10.20;4.63;;;6.90;94.60;;;;;;5072028;28;20033;-72
2021/03/23 01:43:57;;;;;;;10.88;5.38;;;6.80;94.50;;;;;;5072208;28;20032;-72
2021/03/23 01:46:37;;;;;;;9.40;4.75;;;6.90;94.50;;;;;;5072242;28;20102;-73
2021/03/23 01:49:03;;;;;;;8.43;4.47;;;6.90;94.50;;;;;;5071419;28;20059;-72
2021/03/23 01:51:29;;;;;;;9.45;4.80;;;6.90;94.40;;;;;;5080348;28;20534;-72
2021/03/23 01:54:04;;;;;;;8.18;4.95;;;6.90;94.50;;;;;;5091800;28;20044;-73
2021/03/23 01:56:30;;;;;;;6.82;4.63;;;6.90;94.50;;;;;;5091575;28;20016;-70
2021/03/23 01:58:56;;;;;;;12.02;4.78;;;6.90;94.40;;;;;;5092418;28;20031;-72
2021/03/23 02:01:22;;;;;;;7.25;4.13;;;6.90;94.30;;;;;;5092730;28;20039;-73
2021/03/23 02:03:48;;;;;;;6.05;4.20;;;6.90;94.20;;;;;;5091982;28;20028;-72
2021/03/23 02:06:34;;;;;;;9.73;4.70;;;6.90;94.20;;;;;;5073145;28;20512;-73
2021/03/23 02:09:02;;;;;;;8.25;4.78;;;6.90;94.10;;;;;;5091839;28;20039;-73
2021/03/23 02:11:30;;;;;;;6.28;4.13;;;6.90;94.00;;;;;;5091916;28;20035;-73
2021/03/23 02:13:57;;;;;;;10.80;4.38;;;6.90;93.80;;;;;;5091998;28;20036;-72
2021/03/23 02:16:22;;;;;;;9.00;4.20;;;6.90;93.60;;;;;;5091734;28;20035;-73
2021/03/23 02:18:48;;;;;;;13.48;4.32;;;6.90;93.60;;;;;;5091750;28;20508;-72
2021/03/23 02:21:16;;;;;;;8.43;3.92;;;6.90;93.70;;;;;;5091998;28;20102;-71
2021/03/23 02:23:51;;;;;;;10.23;4.72;;;6.90;93.60;;;;;;5092569;28;20099;-71
2021/03/23 02:26:31;;;;;;;15.98;5.18;;;6.90;93.60;;;;;;5092116;28;20055;-71
2021/03/23 02:28:56;;;;;;;8.65;5.35;;;6.90;93.60;;;;;;5092407;28;20438;-72
2021/03/23 02:31:28;;;;;;;7.65;4.35;;;6.90;93.60;;;;;;5092157;28;20115;-73
2021/03/23 02:33:56;;;;;;;11.00;4.55;;;6.90;93.70;;;;;;5092426;28;20132;-72
2021/03/23 02:36:22;;;;;;;11.07;4.53;;;6.90;93.70;;;;;;5092146;28;20707;-73
2021/03/23 02:38:48;;;;;;;9.82;4.30;;;6.90;93.40;;;;;;5092294;28;20131;-71
2021/03/23 02:41:14;;;;;;;14.80;4.20;;;6.90;93.20;;;;;;5092111;28;20439;-72
2021/03/23 02:43:40;;;;;;;7.40;3.92;;;6.90;93.30;;;;;;5092793;28;20028;-72
2021/03/23 02:46:06;;;;;;;8.77;4.47;;;7.00;93.40;;;;;;5094035;28;20067;-72
2021/03/23 02:48:31;;;;;;;5.43;3.78;;;6.90;93.40;;;;;;5094339;28;20036;-71
2021/03/23 02:50:57;;;;;;;7.72;4.38;;;7.00;93.20;;;;;;5094408;28;20127;-72
2021/03/23 02:53:23;;;;;;;6.97;4.55;;;6.90;93.20;;;;;;5093777;28;20114;-72
2021/03/23 02:55:49;;;;;;;9.85;3.45;;;7.00;93.10;;;;;;5093728;28;20036;-71
2021/03/23 02:58:15;;;;;;;15.95;4.80;;;7.00;92.90;;;;;;5093686;28;20477;-72
2021/03/23 03:00:43;;;;;;;10.73;5.18;;;6.90;92.90;;;;;;5094483;28;20034;-72
2021/03/23 03:03:09;;;;;;;6.60;3.80;;;7.00;92.70;;;;;;5094576;28;20067;-71
2021/03/23 03:05:34;;;;;;;9.82;4.45;;;7.00;92.70;;;;;;5094337;28;20036;-72
2021/03/23 03:08:00;;;;;;;7.72;3.67;;;7.00;92.60;;;;;;5093714;28;20024;-72
2021/03/23 03:10:26;;;;;;;6.90;3.88;;;7.00;92.40;;;;;;5095330;28;20055;-73
2021/03/23 03:12:54;;;;;;;9.90;4.18;;;7.00;92.20;;;;;;5096634;28;20435;-72
2021/03/23 03:15:19;;;;;;;6.38;3.75;;;7.00;92.20;;;;;;5096305;28;20020;-73
2021/03/23 03:17:45;;;;;;;6.78;3.55;;;7.10;92.10;;;;;;5098233;28;20123;-72
2021/03/23 03:20:14;;;;;;;7.10;4.57;;;7.10;92.00;;;;;;5100993;28;20431;-72
2021/03/23 03:22:40;;;;;;;7.90;4.03;;;7.10;91.90;;;;;;5100383;28;20024;-72
2021/03/23 03:25:09;;;;;;;4.75;3.30;;;7.10;91.90;;;;;;5099875;28;20032;-72
2021/03/23 03:27:35;;;;;;;8.50;3.72;;;7.10;91.80;;;;;;5098470;28;20078;-72
2021/03/23 03:30:01;;;;;;;7.88;3.42;;;7.10;91.90;;;;;;5099807;28;20528;-72
2021/03/23 03:32:26;;;;;;;6.78;3.50;;;7.10;91.80;;;;;;5098587;28;20036;-73
2021/03/23 03:34:52;;;;;;;10.98;4.00;;;7.00;91.80;;;;;;5098019;28;20358;-73
2021/03/23 03:40:09;;;;;;;5.93;3.50;;;7.00;91.80;;;;;;5095475;28;20044;-72
2021/03/23 03:42:35;;;;;;;8.27;3.80;;;7.00;91.80;;;;;;5095672;28;20403;-72
2021/03/23 03:45:01;;;;;;;6.72;3.35;;;7.00;91.80;;;;;;5095770;28;20281;-72
2021/03/23 03:47:27;;;;;;;8.20;3.67;;;7.00;91.80;;;;;;5077337;28;20415;-73
2021/03/23 03:49:52;;;;;;;6.00;3.42;;;7.00;91.80;;;;;;5094291;28;20031;-73
2021/03/23 03:52:18;;;;;;;6.70;3.58;;;7.00;92.00;;;;;;5094348;28;20075;-73
2021/03/23 03:54:44;;;;;;;6.72;3.97;;;7.00;92.00;;;;;;5094892;28;20039;-71
2021/03/23 03:57:09;;;;;;;10.57;4.63;;;7.00;92.00;;;;;;5094629;28;20024;-71
2021/03/23 03:59:35;;;;;;;7.75;3.47;;;7.00;91.80;;;;;;5094394;28;20028;-72
2021/03/23 04:02:01;;;;;;;8.27;3.67;;;7.00;91.70;;;;;;5094392;28;20418;-72
2021/03/23 04:04:26;;;;;;;13.80;4.38;;;6.90;91.80;;;;;;5094528;28;20028;-72
2021/03/23 04:06:59;;;;;;;7.30;3.58;;;6.90;91.90;;;;;;5094206;28;20035;-72
2021/03/23 04:09:25;;;;;;;8.23;3.85;;;6.90;91.80;;;;;;5094495;28;20378;-72
2021/03/23 04:11:51;;;;;;;6.65;4.00;;;6.90;91.70;;;;;;5076088;28;20066;-72
2021/03/23 04:14:16;;;;;;;8.20;4.15;;;6.90;91.70;;;;;;5094358;28;20036;-71
2021/03/23 04:16:42;;;;;;;8.23;3.50;;;6.80;91.80;;;;;;5094479;28;20115;-73
2021/03/23 04:19:08;;;;;;;14.43;3.70;;;6.80;91.70;;;;;;5094070;28;20105;-72
2021/03/23 04:21:34;;;;;;;9.13;3.88;;;6.80;91.70;;;;;;5094370;28;20438;-72
2021/03/23 04:24:00;;;;;;;7.30;3.63;;;6.80;91.80;;;;;;5094059;28;20484;-73
2021/03/23 04:26:25;;;;;;;8.13;3.72;;;6.80;91.80;;;;;;5094251;28;20066;-72
2021/03/23 04:28:51;;;;;;;5.50;3.58;;;6.80;91.70;;;;;;5093374;28;20115;-72
2021/03/23 04:31:43;;;;;;;7.60;3.80;;;6.80;91.70;;;;;;5093902;28;20138;-73
2021/03/23 04:34:10;;;;;;;7.50;3.50;;;6.80;91.50;;;;;;5075501;28;20048;-72
2021/03/23 04:36:36;;;;;;;6.32;3.88;;;6.80;91.50;;;;;;5093738;28;20070;-73
2021/03/23 04:39:05;;;;;;;9.52;4.18;;;6.70;91.50;;;;;;5093847;28;20396;-72
2021/03/23 04:41:31;;;;;;;11.65;4.90;;;6.70;91.50;;;;;;5093344;28;20122;-72
2021/03/23 04:43:56;;;;;;;9.18;3.60;;;6.70;91.50;;;;;;5093677;28;20115;-71
2021/03/23 04:46:27;;;;;;;10.20;3.97;;;6.70;91.50;;;;;;5075045;28;20032;-72
2021/03/23 04:48:54;;;;;;;9.48;4.20;;;6.60;91.50;;;;;;5094010;28;20055;-73
2021/03/23 04:51:21;;;;;;;8.90;3.90;;;6.60;91.50;;;;;;5092403;28;20118;-73
2021/03/23 04:53:47;;;;;;;5.90;3.50;;;6.60;91.50;;;;;;5092642;28;20052;-70
2021/03/23 04:56:31;;;;;;;10.93;3.67;;;6.60;91.30;;;;;;5092192;28;20077;-73
2021/03/23 04:58:57;;;;;;;11.07;4.05;;;6.70;91.40;;;;;;5091752;28;20139;-73
2021/03/23 05:01:23;;;;;;;8.00;3.58;;;6.60;91.40;;;;;;5073357;28;20122;-73
2021/03/23 05:03:58;;;;;;;8.68;3.20;;;6.60;91.40;;;;;;5091493;28;20033;-72
2021/03/23 05:06:25;;;;;;;7.85;4.22;;;6.60;91.40;;;;;;5091250;28;20024;-72
2021/03/23 05:08:51;;;;;;;6.80;3.80;;;6.60;91.60;;;;;;5091132;28;20031;-72
2021/03/23 05:11:25;;;;;;;12.00;4.30;;;6.60;91.30;;;;;;5090871;28;20480;-72
2021/03/23 05:13:51;;;;;;;10.73;4.10;;;6.60;91.30;;;;;;5092274;28;20090;-72
2021/03/23 05:16:18;;;;;;;6.65;3.67;;;6.60;91.30;;;;;;5093255;28;20103;-71
2021/03/23 05:18:43;;;;;;;8.93;3.90;;;6.60;91.30;;;;;;5092465;28;20106;-72
2021/03/23 05:21:09;;;;;;;17.63;4.05;;;6.60;91.40;;;;;;5092898;28;20032;-72
2021/03/23 05:23:36;;;;;;;9.93;3.95;;;6.70;91.20;;;;;;5092977;28;20028;-72
2021/03/23 05:26:02;;;;;;;9.68;4.70;;;6.70;91.30;;;;;;5092918;28;20107;-71
2021/03/23 05:28:28;;;;;;;9.70;4.13;;;6.80;91.10;;;;;;5093252;28;20082;-72
2021/03/23 05:30:56;;;;;;;6.40;3.20;;;7.00;90.90;;;;;;5092921;28;20032;-71
2021/03/23 05:33:21;;;;;;;8.02;4.50;;;7.20;90.70;;;;;;5091963;28;20097;-70
2021/03/23 05:35:50;;;;;;;9.68;3.90;;;7.50;90.30;;;;;;5092599;28;20028;-73
2021/03/23 05:38:16;;;;;;;9.73;3.45;;;7.70;90.20;;;;;;5091647;28;20036;-70
2021/03/23 05:40:45;;;;;;;8.38;3.72;;;8.00;89.40;;;;;;5086606;28;20556;-72
2021/03/23 05:43:32;;;;;;;18.95;3.97;;;8.10;88.90;;;;;;5084163;28;20111;-71
2021/03/23 05:46:16;;;;;;;7.65;3.42;;;8.30;88.50;;;;;;5080523;28;20448;-73
2021/03/23 05:49:01;;;;;;;5.93;3.63;;;8.60;88.00;;;;;;5085325;28;20020;-73
2021/03/23 05:51:36;;;;;;;12.18;4.13;;;8.80;87.20;;;;;;5083671;28;20097;-73
2021/03/23 05:54:17;;;;;;;10.45;3.47;;;9.00;86.90;;;;;;5083211;28;20050;-72
2021/03/23 05:56:46;;;;;;;7.90;3.47;;;9.10;86.60;;;;;;5084979;28;20031;-72
2021/03/23 05:59:16;;;;;;;8.80;3.05;;;9.40;85.50;;;;;;5086760;28;20508;-72
2021/03/23 06:01:50;;;;;;;11.98;3.78;;;9.60;85.00;;;;;;5092657;28;20039;-72
2021/03/23 06:04:27;;;;;;;9.10;3.83;;;9.70;85.00;;;;;;5092504;28;20507;-72
2021/03/23 06:07:03;;;;;;;10.70;4.45;;;9.90;84.70;;;;;;5092171;28;20025;-71
2021/03/23 06:09:36;;;;;;;10.93;4.45;;;10.20;84.00;;;;;;5092442;28;20036;-70
2021/03/23 06:12:14;;;;;;;7.32;3.80;;;10.40;83.20;;;;;;5092273;28;20111;-72
2021/03/23 06:14:47;;;;;;;9.38;3.10;;;10.50;82.60;;;;;;5080481;28;20063;-73
2021/03/23 06:17:27;;;;;;;9.68;3.40;;;10.60;82.50;;;;;;5071782;28;20458;-72
2021/03/23 06:19:57;;;;;;;10.85;3.40;;;10.80;82.30;;;;;;5072026;28;20047;-72
2021/03/23 06:22:44;;;;;;;7.72;3.40;;;11.20;81.50;;;;;;5079909;28;20048;-73
2021/03/23 06:25:21;;;;;;;7.78;3.33;;;11.30;80.50;;;;;;5078109;28;20036;-71
2021/03/23 06:27:53;;;;;;;9.73;3.47;;;11.50;80.70;;;;;;5082514;28;20029;-72
2021/03/23 06:30:19;;;;;;;10.45;3.47;;;11.70;80.00;;;;;;5077556;28;20120;-73
2021/03/23 06:32:51;;;;;;;8.13;3.60;;;12.00;79.60;;;;;;5080820;28;20556;-73
2021/03/23 06:35:43;;;;;;;11.05;4.00;;;12.20;78.80;;;;;;5075563;28;20032;-72
2021/03/23 06:38:30;;;;;;;11.45;3.65;;;12.40;78.20;;;;;;5072422;28;20401;-72
2021/03/23 06:41:10;;;;;;;10.15;4.05;;;12.50;77.40;;;;;;5073374;28;20123;-73
2021/03/23 06:43:38;;;;;;;14.73;4.50;;;12.60;77.50;;;;;;5072074;28;20470;-71
2021/03/23 06:46:16;;;;;;;10.55;3.60;;;12.80;77.20;;;;;;5074692;28;20040;-72
2021/03/23 06:48:43;;;;;;;10.82;3.67;;;12.90;77.10;;;;;;5073017;28;20139;-70
2021/03/23 06:51:08;;;;;;;10.70;3.85;;;13.10;76.40;;;;;;5071798;28;20403;-72
2021/03/23 06:53:34;;;;;;;11.85;4.40;;;13.20;76.10;;;;;;5085346;28;20041;-70
2021/03/23 06:56:25;;;;;;;6.75;3.42;;;13.20;76.50;;;;;;5070793;28;20090;-72
2021/03/23 06:59:19;;;;;;;7.65;2.95;;;13.30;75.50;;;;;;5074643;28;20056;-72
2021/03/23 07:01:49;;;;;;;8.50;4.15;;;13.30;75.30;;;;;;5073115;28;20034;-72
2021/03/23 07:04:24;;;;;;;6.28;3.45;;;13.40;75.80;;;;;;5075308;28;20539;-70
2021/03/23 07:07:14;;;;;;;9.35;3.53;;;13.70;74.80;;;;;;5077047;28;20564;-70
2021/03/23 07:09:52;;;;;;;8.25;3.83;;;14.00;74.50;;;;;;5077837;28;20163;-70
2021/03/23 07:12:19;;;;;;;11.40;3.30;;;14.20;74.30;;;;;;5076834;28;20039;-70
2021/03/23 07:14:48;;;;;;;13.20;4.32;;;14.60;73.60;;;;;;5075818;28;20039;-69
2021/03/23 07:17:26;;;;;;;5.65;3.47;;;14.70;72.50;;;;;;5080057;28;20035;-70
2021/03/23 07:19:58;;;;;;;6.32;3.03;;;14.60;72.90;;;;;;5075142;28;20154;-69
2021/03/23 07:22:32;;;;;;;7.90;3.63;;;14.80;72.50;;;;;;5075089;28;20367;-70
2021/03/23 07:24:58;;;;;;;8.52;3.20;;;15.10;72.10;;;;;;5056179;28;20021;-69
2021/03/23 07:27:29;;;;;;;10.80;3.45;;;15.30;72.10;;;;;;5076751;28;20032;-69
2021/03/23 07:30:31;;;;;;;7.55;2.92;;;15.70;70.00;;;;;;5076262;28;20071;-69
2021/03/23 07:33:02;;;;;;;5.97;2.73;;;16.00;69.70;;;;;;5074542;28;20071;-70
2021/03/23 07:35:32;;;;;;;10.25;3.08;;;16.40;68.90;;;;;;5075106;28;20028;-69
2021/03/23 07:38:11;;;;;;;7.50;3.00;;;16.40;67.80;;;;;;5073680;28;20024;-69
2021/03/23 07:40:42;;;;;;;7.30;2.50;;;16.40;68.00;;;;;;5076175;28;20024;-70
2021/03/23 07:43:17;;;;;;;8.35;3.17;;;16.50;68.00;;;;;;5075940;28;20024;-69
2021/03/23 07:46:05;;;;;;;12.05;3.72;;;16.60;68.00;;;;;;5077382;28;20401;-69
2021/03/23 07:48:50;;;;;;;21.33;12.00;;;16.80;67.50;;;;;;5075340;28;20021;-69
2021/03/23 07:51:26;;;;;;;22.92;9.35;;;16.70;67.20;;;;;;5054775;28;20045;-70
2021/03/23 07:53:53;;;;;;;11.88;5.00;;;16.70;67.30;;;;;;5073215;28;20076;-72
2021/03/23 07:56:49;;;;;;;18.27;4.85;;;16.70;67.50;;;;;;5055695;28;20127;-74
2021/03/23 07:59:21;;;;;;;11.57;5.13;;;16.70;67.20;;;;;;5078654;28;20058;-72
2021/03/23 08:02:26;;;;;;;44.75;6.15;;;16.70;66.60;;;;;;5076178;28;20025;-70
2021/03/23 08:05:14;;;;;;;58.13;5.75;;;16.30;67.70;;;;;;5071236;28;20086;-70
2021/03/23 08:08:07;;;;;;;25.90;6.72;;;16.10;68.30;;;;;;5074780;28;20027;-71
2021/03/23 08:10:34;;;;;;;11.70;3.72;;;16.00;69.00;;;;;;5083844;28;20062;-69
2021/03/23 08:13:31;;;;;;;8.10;3.17;;;16.20;68.10;;;;;;5085543;28;20055;-69
2021/03/23 08:16:33;;;;;;;8.35;2.95;;;16.60;67.70;;;;;;5082590;28;20020;-69
2021/03/23 08:19:06;;;;;;;10.07;2.30;;;17.10;66.50;;;;;;5073487;28;20575;-70
2021/03/23 08:22:09;;;;;;;5.68;2.60;;;17.60;65.80;;;;;;5071027;28;20028;-70
2021/03/23 08:24:58;;;;;;;8.85;2.85;;;18.10;65.50;;;;;;4988280;28;20041;-69
2021/03/23 08:27:41;;;;;;;3.42;2.35;;;18.50;65.30;;;;;;5087885;28;20028;-70
2021/03/23 08:30:25;;;;;;;4.15;2.33;;;18.70;64.10;;;;;;5077544;28;20033;-70
2021/03/23 08:33:33;;;;;;;6.45;2.97;;;19.00;64.20;;;;;;5083147;28;20095;-70
2021/03/23 08:36:32;;;;;;;5.55;2.78;;;19.30;62.20;;;;;;5075773;28;20044;-70
2021/03/23 08:39:02;;;;;;;9.35;2.60;;;19.30;62.30;;;;;;5070932;28;20025;-70
2021/03/23 08:41:40;;;;;;;6.53;2.58;;;19.40;61.90;;;;;;5069207;28;20028;-70
2021/03/23 08:44:36;;;;;;;4.80;2.35;;;19.60;61.10;;;;;;5074955;28;20032;-70
2021/03/23 08:47:26;;;;;;;5.55;2.17;;;19.80;59.80;;;;;;5062875;28;20037;-70
2021/03/23 08:49:55;;;;;;;4.90;2.80;;;20.10;59.80;;;;;;5073448;28;20152;-70
2021/03/23 08:52:57;;;;;;;7.57;2.25;;;20.40;59.10;;;;;;5076378;28;20095;-70
2021/03/23 08:55:28;;;;;;;;;;;21.00;58.80;;;;;;4968555;28;20435;-70
2021/03/23 08:57:57;;;;;;;5.82;2.50;;;21.60;58.70;;;;;;5055916;28;19908;-70
2021/03/23 09:00:35;;;;;;;10.07;2.63;;;22.20;58.00;;;;;;5074269;28;20039;-70
2021/03/23 09:03:21;;;;;;;8.02;2.85;;;22.70;58.30;;;;;;5071348;28;20052;-70
2021/03/23 09:05:52;;;;;;;9.05;2.65;;;23.20;57.60;;;;;;5078876;28;20145;-70
2021/03/23 09:08:21;;;;;;;8.10;2.10;;;23.30;57.70;;;;;;5074053;28;20028;-71
2021/03/23 09:11:07;;;;;;;7.43;2.30;;;23.00;58.30;;;;;;5072813;28;20028;-70
2021/03/23 09:13:39;;;;;;;7.65;2.53;;;22.70;58.60;;;;;;5073009;28;20119;-70
2021/03/23 09:16:15;;;;;;;;;;;22.20;58.80;;;;;;5074187;28;20135;-70
2021/03/23 09:19:08;;;;;;;5.63;2.30;;;21.70;60.00;;;;;;5070147;28;19916;-70
2021/03/23 09:21:53;;;;;;;4.35;1.80;;;21.20;59.20;;;;;;5073654;28;20052;-70
2021/03/23 09:24:30;;;;;;;10.68;2.58;;;20.60;60.60;;;;;;5072563;28;20063;-70
2021/03/23 09:26:57;;;;;;;8.35;2.50;;;20.30;62.00;;;;;;5074105;28;20024;-71
2021/03/23 09:29:42;;;;;;;11.68;3.25;;;20.20;63.90;;;;;;5074307;28;20047;-70
2021/03/23 09:32:16;;;;;;;8.18;3.05;;;20.10;64.20;;;;;;5073409;28;20056;-70
2021/03/23 09:35:11;;;;;;;7.10;2.63;;;19.40;64.90;;;;;;5073021;28;20029;-70
2021/03/23 09:37:59;;;;;;;7.97;2.67;;;18.70;66.60;;;;;;5068840;28;20527;-71
2021/03/23 09:40:33;;;;;;;7.80;2.92;;;18.10;67.90;;;;;;5068113;28;20029;-70
2021/03/23 09:43:22;;;;;;;5.32;2.58;;;17.60;69.80;;;;;;5072065;28;20047;-71
2021/03/23 09:45:48;;;;;;;6.10;2.92;;;17.50;71.10;;;;;;5079023;28;20020;-72
2021/03/23 09:48:14;;;;;;;8.35;3.40;;;17.30;71.20;;;;;;5085591;28;20511;-70
2021/03/23 09:51:01;;;;;;;8.88;3.17;;;16.80;72.60;;;;;;5076976;28;20032;-72
2021/03/23 09:53:33;;;;;;;6.68;3.47;;;16.30;74.50;;;;;;5076351;28;20167;-71
2021/03/23 09:56:10;;;;;;;16.23;4.00;;;15.90;76.00;;;;;;5074284;28;20112;-70
2021/03/23 09:58:38;;;;;;;10.57;3.58;;;15.70;76.60;;;;;;5081665;28;20270;-70
2021/03/23 10:01:11;;;;;;;7.30;4.28;;;15.60;76.80;;;;;;5092416;28;20678;-70
2021/03/23 10:03:38;;;;;;;8.75;4.00;;;15.40;77.20;;;;;;5079768;28;20035;-73
2021/03/23 10:06:11;;;;;;;18.63;4.22;;;15.20;78.10;;;;;;5071111;28;20384;-72
2021/03/23 10:08:37;;;;;;;12.05;4.20;;;15.00;79.80;;;;;;5070455;28;20028;-71
2021/03/23 10:11:23;;;;;;;9.32;3.42;;;14.80;80.70;;;;;;5068980;28;20448;-73
2021/03/23 10:13:53;;;;;;;9.82;4.00;;;14.50;81.20;;;;;;5067731;28;20068;-71
2021/03/23 10:16:30;;;;;;;10.82;3.58;;;14.50;81.70;;;;;;5069722;28;20424;-71
2021/03/23 10:19:03;;;;;;;10.52;4.32;;;14.50;81.60;;;;;;5069993;28;20033;-71
2021/03/23 10:21:32;;;;;;;8.45;3.97;;;14.40;81.60;;;;;;5047104;28;20094;-71
2021/03/23 10:24:01;;;;;;;6.90;4.05;;;14.40;82.40;;;;;;5068381;28;20039;-72
2021/03/23 10:26:45;;;;;;;15.90;4.65;;;14.60;82.60;;;;;;5072288;28;20481;-73
2021/03/23 10:29:19;;;;;;;8.18;4.88;;;14.70;82.00;;;;;;5072060;28;20052;-71
2021/03/23 10:31:51;;;;;;;12.40;5.35;;;14.60;81.30;;;;;;5057271;28;20017;-71
2021/03/23 10:34:32;;;;;;;12.40;5.32;;;14.70;81.30;;;;;;5068990;28;20052;-71
2021/03/23 10:37:01;;;;;;;49.45;7.13;;;14.50;82.20;;;;;;5066925;28;20028;-75
2021/03/23 10:39:42;;;;;;;18.25;6.13;;;14.60;88.60;;;;;;5081373;28;20032;-75
2021/03/23 10:42:20;;;;;;;12.23;5.53;;;14.80;89.70;;;;;;5070971;28;20032;-75
2021/03/23 10:44:46;;;;;;;11.68;5.30;;;14.80;85.10;;;;;;5073384;28;20054;-75
2021/03/23 10:47:29;;;;;;;8.85;5.28;;;14.70;82.90;;;;;;5064911;28;20492;-71
2021/03/23 10:49:55;;;;;;;10.98;4.53;;;14.70;83.30;;;;;;5070436;28;20040;-70
2021/03/23 10:52:20;;;;;;;16.52;5.32;;;14.80;83.70;;;;;;5069684;28;20040;-70
2021/03/23 10:54:46;;;;;;;11.20;5.50;;;14.90;84.10;;;;;;5069410;28;20036;-72
2021/03/23 10:57:30;;;;;;;14.75;5.13;;;14.80;84.50;;;;;;5038898;28;20108;-71
2021/03/23 11:00:29;;;;;;;15.68;5.30;;;14.70;87.00;;;;;;5068155;28;20123;-71
2021/03/23 11:03:12;;;;;;;15.25;5.72;;;14.60;87.80;;;;;;5067483;28;20748;-77
2021/03/23 11:05:46;;;;;;;16.33;6.43;;;14.60;86.90;;;;;;5066405;28;20810;-72
2021/03/23 11:08:14;;;;;;;14.38;5.15;;;14.60;87.90;;;;;;5072183;28;20032;-70
2021/03/23 11:10:41;;;;;;;10.57;5.65;;;14.60;88.30;;;;;;5069987;28;20485;-74
2021/03/23 11:13:07;;;;;;;16.77;5.88;;;14.60;88.80;;;;;;5076435;28;20040;-75
2021/03/23 11:15:37;;;;;;;16.67;6.10;;;14.50;88.00;;;;;;5075349;28;20716;-71
2021/03/23 11:18:07;;;;;;;12.63;5.35;;;14.50;87.50;;;;;;5076995;28;20029;-75
2021/03/23 11:20:39;;;;;;;11.57;5.47;;;14.60;87.60;;;;;;5077385;28;20059;-75
2021/03/23 11:23:25;;;;;;;11.48;5.90;;;14.40;88.00;;;;;;5066730;28;20488;-77
2021/03/23 11:25:51;;;;;;;11.77;6.07;;;14.20;89.50;;;;;;5067972;28;20025;-72
2021/03/23 11:28:19;;;;;;;14.02;5.75;;;14.20;89.20;;;;;;5069878;28;20036;-79
2021/03/23 11:30:45;;;;;;;12.18;5.97;;;14.10;89.20;;;;;;5069267;28;20086;-75
2021/03/23 11:33:13;;;;;;;11.55;6.28;;;14.10;89.90;;;;;;5071094;28;20041;-75
2021/03/23 11:35:39;;;;;;;14.90;6.38;;;14.00;90.10;;;;;;5068456;28;20496;-72
2021/03/23 11:38:05;;;;;;;20.98;6.85;;;14.10;90.60;;;;;;5072142;28;20032;-71
2021/03/23 11:40:31;;;;;;;11.52;6.40;;;14.10;90.60;;;;;;5071927;28;20035;-71
2021/03/23 11:42:57;;;;;;;16.05;5.75;;;14.10;90.40;;;;;;5076971;28;21663;-72
2021/03/23 11:45:42;;;;;;;16.10;7.25;;;14.10;90.40;;;;;;5069058;28;20036;-70
2021/03/23 11:48:12;;;;;;;13.70;7.10;;;14.10;90.70;;;;;;5085436;28;20063;-72
2021/03/23 11:50:39;;;;;;;14.35;7.25;;;14.10;90.90;;;;;;5081285;28;20039;-74
2021/03/23 11:53:05;;;;;;;18.92;7.88;;;14.10;90.60;;;;;;5076159;28;20047;-72
2021/03/23 11:55:34;;;;;;;23.08;7.63;;;14.00;90.90;;;;;;5074835;28;20438;-75
2021/03/23 11:58:02;;;;;;;13.18;7.55;;;14.00;96.20;;;;;;5072585;28;20025;-73
2021/03/23 12:00:29;;;;;;;13.75;7.70;;;14.00;98.70;;;;;;5081925;28;20457;-71
2021/03/23 12:02:57;;;;;;;20.00;7.95;;;14.00;97.70;;;;;;5075262;28;20273;-76
2021/03/23 12:05:24;;;;;;;24.58;7.63;;;13.80;93.50;;;;;;5076500;28;20025;-74
2021/03/23 12:08:14;;;;;;;12.85;7.60;;;13.80;93.40;;;;;;5073778;28;20071;-73
2021/03/23 12:10:55;;;;;;;21.02;6.88;;;13.80;92.70;;;;;;5071194;28;20062;-71
2021/03/23 12:13:27;;;;;;;20.33;7.05;;;13.80;92.10;;;;;;5072386;28;20543;-71
2021/03/23 12:16:04;;;;;;;13.73;7.43;;;13.80;92.30;;;;;;5069909;28;20066;-71
2021/03/23 12:18:32;;;;;;;12.85;6.63;;;13.90;92.40;;;;;;5063514;28;20049;-72
2021/03/23 12:21:00;;;;;;;14.60;7.72;;;13.90;92.10;;;;;;5084882;28;20103;-73
2021/03/23 12:23:28;;;;;;;14.13;7.28;;;14.00;92.40;;;;;;5090506;28;20031;-74
2021/03/23 12:25:58;;;;;;;15.48;7.32;;;14.10;92.20;;;;;;5081745;28;20386;-76
2021/03/23 12:28:24;;;;;;;17.65;7.90;;;14.00;92.10;;;;;;5075987;28;20043;-70
2021/03/23 12:30:50;;;;;;;18.80;8.07;;;14.00;92.10;;;;;;5070832;28;20036;-72
2021/03/23 12:33:16;;;;;;;18.88;7.72;;;14.00;92.20;;;;;;5088101;28;20127;-71
2021/03/23 12:35:41;;;;;;;17.13;7.18;;;14.00;92.00;;;;;;5086572;28;20162;-72
2021/03/23 12:38:10;;;;;;;22.20;7.53;;;13.90;92.40;;;;;;5078660;28;20036;-70
2021/03/23 12:40:37;;;;;;;18.10;7.82;;;13.90;93.10;;;;;;5084828;28;20030;-71
2021/03/23 12:43:07;;;;;;;19.33;7.60;;;13.90;93.10;;;;;;5085020;28;20485;-71
2021/03/23 12:45:39;;;;;;;20.38;8.20;;;14.00;93.50;;;;;;5075514;28;20045;-72
2021/03/23 12:48:05;;;;;;;20.92;7.95;;;14.10;93.20;;;;;;5071787;28;20094;-73
2021/03/23 12:50:31;;;;;;;22.40;8.30;;;14.20;92.80;;;;;;5062934;28;20045;-72
2021/03/23 12:53:01;;;;;;;20.90;8.00;;;14.10;92.60;;;;;;5065825;28;20437;-72
2021/03/23 12:55:29;;;;;;;16.52;7.72;;;14.10;93.00;;;;;;5067331;28;20094;-70
2021/03/23 12:57:57;;;;;;;14.50;7.38;;;14.10;93.20;;;;;;5088540;28;20029;-71
2021/03/23 13:00:26;;;;;;;17.48;7.93;;;14.00;93.30;;;;;;5083846;28;20032;-69
2021/03/23 13:02:53;;;;;;;30.13;7.82;;;14.00;93.60;;;;;;5086425;28;20059;-74
2021/03/23 13:05:20;;;;;;;14.30;7.68;;;13.80;94.50;;;;;;5089065;28;20089;-70
2021/03/23 13:07:47;;;;;;;19.38;7.28;;;13.80;95.30;;;;;;5081101;28;20036;-69
2021/03/23 13:10:29;;;;;;;14.73;7.28;;;13.80;95.20;;;;;;5070467;28;20032;-70
2021/03/23 13:12:57;;;;;;;;;;;13.80;95.00;;;;;;5073561;28;20049;-70
2021/03/23 13:15:23;;;;;;;35.45;12.93;;;13.90;94.80;;;;;;5072816;28;19991;-69